sensor_id;sensor_type;location;lat;lon;timestamp;P1;durP1;ratioP1;P2;durP2;ratioP2
6037;SDS011;3047;42.600;23.470;2022-08-19T00:01:34;3.45;;;3.17;;
6037;SDS011;3047;42.600;23.470;2022-08-19T00:04:04;3.45;;;3.22;;
6037;SDS011;3047;42.600;23.470;2022-08-19T00:06:33;3.35;;;3.10;;
6037;SDS011;3047;42.600;23.470;2022-08-19T00:09:00;4.20;;;3.20;;
6037;SDS011;3047;42.600;23.470;2022-08-19T00:11:30;3.25;;;3.05;;
6037;SDS011;3047;42.600;23.470;2022-08-19T00:14:01;3.55;;;3.25;;
6037;SDS011;3047;42.600;23.470;2022-08-19T00:16:28;4.82;;;3.47;;
6037;SDS011;3047;42.600;23.470;2022-08-19T00:18:55;4.90;;;3.58;;
6037;SDS011;3047;42.600;23.470;2022-08-19T00:21:22;8.32;;;3.47;;
6037;SDS011;3047;42.600;23.470;2022-08-19T00:23:49;4.85;;;3.35;;
6037;SDS011;3047;42.600;23.470;2022-08-19T00:26:16;3.28;;;3.08;;
6037;SDS011;3047;42.600;23.470;2022-08-19T00:28:43;3.90;;;3.70;;
6037;SDS011;3047;42.600;23.470;2022-08-19T00:31:11;4.00;;;3.58;;
6037;SDS011;3047;42.600;23.470;2022-08-19T00:33:38;3.90;;;3.45;;
6037;SDS011;3047;42.600;23.470;2022-08-19T00:36:07;3.22;;;3.03;;
6037;SDS011;3047;42.600;23.470;2022-08-19T00:38:35;3.45;;;3.25;;
6037;SDS011;3047;42.600;23.470;2022-08-19T00:41:08;3.45;;;3.17;;
6037;SDS011;3047;42.600;23.470;2022-08-19T00:43:35;4.18;;;3.33;;
6037;SDS011;3047;42.600;23.470;2022-08-19T00:46:03;6.45;;;3.42;;
6037;SDS011;3047;42.600;23.470;2022-08-19T00:48:32;5.70;;;3.38;;
6037;SDS011;3047;42.600;23.470;2022-08-19T00:51:01;3.63;;;3.38;;
6037;SDS011;3047;42.600;23.470;2022-08-19T00:53:30;4.07;;;3.65;;
6037;SDS011;3047;42.600;23.470;2022-08-19T00:55:59;3.97;;;3.63;;
6037;SDS011;3047;42.600;23.470;2022-08-19T00:58:30;3.95;;;3.45;;
6037;SDS011;3047;42.600;23.470;2022-08-19T01:00:59;3.88;;;3.22;;
6037;SDS011;3047;42.600;23.470;2022-08-19T01:03:26;4.03;;;3.78;;
6037;SDS011;3047;42.600;23.470;2022-08-19T01:05:55;3.83;;;3.53;;
6037;SDS011;3047;42.600;23.470;2022-08-19T01:08:22;3.83;;;3.53;;
6037;SDS011;3047;42.600;23.470;2022-08-19T01:10:50;3.33;;;3.10;;
6037;SDS011;3047;42.600;23.470;2022-08-19T01:13:21;3.42;;;3.22;;
6037;SDS011;3047;42.600;23.470;2022-08-19T01:15:52;3.72;;;3.42;;
6037;SDS011;3047;42.600;23.470;2022-08-19T01:18:21;3.72;;;3.33;;
6037;SDS011;3047;42.600;23.470;2022-08-19T01:20:51;3.75;;;3.33;;
6037;SDS011;3047;42.600;23.470;2022-08-19T01:23:21;5.05;;;3.53;;
6037;SDS011;3047;42.600;23.470;2022-08-19T01:26:08;5.93;;;3.42;;
6037;SDS011;3047;42.600;23.470;2022-08-19T01:28:36;3.33;;;3.13;;
6037;SDS011;3047;42.600;23.470;2022-08-19T01:31:04;4.47;;;4.18;;
6037;SDS011;3047;42.600;23.470;2022-08-19T01:33:31;3.70;;;3.45;;
6037;SDS011;3047;42.600;23.470;2022-08-19T01:36:03;6.45;;;4.18;;
6037;SDS011;3047;42.600;23.470;2022-08-19T01:38:35;5.40;;;4.40;;
6037;SDS011;3047;42.600;23.470;2022-08-19T01:41:04;4.65;;;4.25;;
6037;SDS011;3047;42.600;23.470;2022-08-19T01:43:31;5.40;;;3.50;;
6037;SDS011;3047;42.600;23.470;2022-08-19T01:45:58;5.25;;;3.88;;
6037;SDS011;3047;42.600;23.470;2022-08-19T01:48:25;3.20;;;3.00;;
6037;SDS011;3047;42.600;23.470;2022-08-19T01:50:54;4.70;;;3.47;;
6037;SDS011;3047;42.600;23.470;2022-08-19T01:53:21;5.15;;;3.33;;
6037;SDS011;3047;42.600;23.470;2022-08-19T01:55:49;3.40;;;3.20;;
6037;SDS011;3047;42.600;23.470;2022-08-19T01:58:16;3.92;;;3.63;;
6037;SDS011;3047;42.600;23.470;2022-08-19T02:00:47;3.40;;;3.20;;
6037;SDS011;3047;42.600;23.470;2022-08-19T02:03:14;3.25;;;3.05;;
6037;SDS011;3047;42.600;23.470;2022-08-19T02:05:41;4.78;;;3.05;;
6037;SDS011;3047;42.600;23.470;2022-08-19T02:08:09;4.47;;;3.78;;
6037;SDS011;3047;42.600;23.470;2022-08-19T02:10:38;5.30;;;3.45;;
6037;SDS011;3047;42.600;23.470;2022-08-19T02:13:09;3.63;;;3.33;;
6037;SDS011;3047;42.600;23.470;2022-08-19T02:15:36;3.83;;;3.45;;
6037;SDS011;3047;42.600;23.470;2022-08-19T02:18:03;4.55;;;3.42;;
6037;SDS011;3047;42.600;23.470;2022-08-19T02:20:30;5.07;;;3.42;;
6037;SDS011;3047;42.600;23.470;2022-08-19T02:22:57;5.90;;;4.60;;
6037;SDS011;3047;42.600;23.470;2022-08-19T02:25:23;3.78;;;3.47;;
6037;SDS011;3047;42.600;23.470;2022-08-19T02:27:50;3.90;;;3.60;;
6037;SDS011;3047;42.600;23.470;2022-08-19T02:30:18;3.92;;;3.63;;
6037;SDS011;3047;42.600;23.470;2022-08-19T02:32:46;4.32;;;3.47;;
6037;SDS011;3047;42.600;23.470;2022-08-19T02:35:13;3.70;;;3.40;;
6037;SDS011;3047;42.600;23.470;2022-08-19T02:37:40;4.03;;;3.72;;
6037;SDS011;3047;42.600;23.470;2022-08-19T02:40:25;4.82;;;3.60;;
6037;SDS011;3047;42.600;23.470;2022-08-19T02:42:52;3.50;;;3.25;;
6037;SDS011;3047;42.600;23.470;2022-08-19T02:45:20;3.83;;;3.53;;
6037;SDS011;3047;42.600;23.470;2022-08-19T02:47:47;4.20;;;3.90;;
6037;SDS011;3047;42.600;23.470;2022-08-19T02:50:14;3.97;;;3.50;;
6037;SDS011;3047;42.600;23.470;2022-08-19T02:52:41;4.72;;;3.83;;
6037;SDS011;3047;42.600;23.470;2022-08-19T02:55:08;3.92;;;3.72;;
6037;SDS011;3047;42.600;23.470;2022-08-19T02:57:35;3.92;;;3.63;;
6037;SDS011;3047;42.600;23.470;2022-08-19T03:00:04;4.13;;;3.72;;
6037;SDS011;3047;42.600;23.470;2022-08-19T03:02:32;6.30;;;3.83;;
6037;SDS011;3047;42.600;23.470;2022-08-19T03:04:59;4.47;;;4.07;;
6037;SDS011;3047;42.600;23.470;2022-08-19T03:07:26;4.32;;;4.03;;
6037;SDS011;3047;42.600;23.470;2022-08-19T03:09:53;3.60;;;3.35;;
6037;SDS011;3047;42.600;23.470;2022-08-19T03:12:20;4.47;;;4.07;;
6037;SDS011;3047;42.600;23.470;2022-08-19T03:14:46;4.45;;;4.05;;
6037;SDS011;3047;42.600;23.470;2022-08-19T03:17:13;5.05;;;3.35;;
6037;SDS011;3047;42.600;23.470;2022-08-19T03:19:41;5.15;;;3.92;;
6037;SDS011;3047;42.600;23.470;2022-08-19T03:22:08;4.50;;;4.10;;
6037;SDS011;3047;42.600;23.470;2022-08-19T03:24:35;4.10;;;3.53;;
6037;SDS011;3047;42.600;23.470;2022-08-19T03:27:03;6.15;;;3.67;;
6037;SDS011;3047;42.600;23.470;2022-08-19T03:29:30;3.60;;;3.28;;
6037;SDS011;3047;42.600;23.470;2022-08-19T03:31:58;3.75;;;3.55;;
6037;SDS011;3047;42.600;23.470;2022-08-19T03:34:29;5.75;;;3.83;;
6037;SDS011;3047;42.600;23.470;2022-08-19T03:36:58;3.70;;;3.40;;
6037;SDS011;3047;42.600;23.470;2022-08-19T03:39:29;4.82;;;3.72;;
6037;SDS011;3047;42.600;23.470;2022-08-19T03:41:56;4.72;;;3.90;;
6037;SDS011;3047;42.600;23.470;2022-08-19T03:44:26;6.00;;;3.53;;
6037;SDS011;3047;42.600;23.470;2022-08-19T03:46:54;4.05;;;3.75;;
6037;SDS011;3047;42.600;23.470;2022-08-19T03:49:22;3.70;;;3.40;;
6037;SDS011;3047;42.600;23.470;2022-08-19T03:51:50;4.00;;;3.72;;
6037;SDS011;3047;42.600;23.470;2022-08-19T03:54:19;4.25;;;3.95;;
6037;SDS011;3047;42.600;23.470;2022-08-19T03:56:48;3.70;;;3.40;;
6037;SDS011;3047;42.600;23.470;2022-08-19T03:59:17;4.00;;;3.45;;
6037;SDS011;3047;42.600;23.470;2022-08-19T04:01:45;3.60;;;3.30;;
6037;SDS011;3047;42.600;23.470;2022-08-19T04:04:12;3.78;;;3.58;;
6037;SDS011;3047;42.600;23.470;2022-08-19T04:06:39;4.45;;;3.53;;
6037;SDS011;3047;42.600;23.470;2022-08-19T04:09:09;4.13;;;3.33;;
6037;SDS011;3047;42.600;23.470;2022-08-19T04:11:39;4.05;;;3.75;;
6037;SDS011;3047;42.600;23.470;2022-08-19T04:14:07;3.67;;;3.35;;
6037;SDS011;3047;42.600;23.470;2022-08-19T04:16:35;4.05;;;3.75;;
6037;SDS011;3047;42.600;23.470;2022-08-19T04:19:03;6.28;;;3.58;;
6037;SDS011;3047;42.600;23.470;2022-08-19T04:21:32;4.40;;;4.00;;
6037;SDS011;3047;42.600;23.470;2022-08-19T04:23:59;4.07;;;3.67;;
6037;SDS011;3047;42.600;23.470;2022-08-19T04:26:27;5.18;;;3.97;;
6037;SDS011;3047;42.600;23.470;2022-08-19T04:28:58;5.97;;;4.10;;
6037;SDS011;3047;42.600;23.470;2022-08-19T04:31:27;3.92;;;3.63;;
6037;SDS011;3047;42.600;23.470;2022-08-19T04:33:55;4.00;;;3.70;;
6037;SDS011;3047;42.600;23.470;2022-08-19T04:36:25;4.05;;;3.72;;
6037;SDS011;3047;42.600;23.470;2022-08-19T04:38:53;4.43;;;3.63;;
6037;SDS011;3047;42.600;23.470;2022-08-19T04:41:21;3.97;;;3.65;;
6037;SDS011;3047;42.600;23.470;2022-08-19T04:44:08;6.00;;;3.95;;
6037;SDS011;3047;42.600;23.470;2022-08-19T04:46:35;4.22;;;3.92;;
6037;SDS011;3047;42.600;23.470;2022-08-19T04:49:03;3.70;;;3.38;;
6037;SDS011;3047;42.600;23.470;2022-08-19T04:51:32;4.32;;;4.03;;
6037;SDS011;3047;42.600;23.470;2022-08-19T04:54:00;4.70;;;3.88;;
6037;SDS011;3047;42.600;23.470;2022-08-19T04:56:28;4.40;;;4.10;;
6037;SDS011;3047;42.600;23.470;2022-08-19T04:58:55;4.70;;;3.58;;
6037;SDS011;3047;42.600;23.470;2022-08-19T05:01:25;4.85;;;3.95;;
6037;SDS011;3047;42.600;23.470;2022-08-19T05:03:55;4.78;;;4.30;;
6037;SDS011;3047;42.600;23.470;2022-08-19T05:06:22;5.25;;;4.75;;
6037;SDS011;3047;42.600;23.470;2022-08-19T05:08:50;6.03;;;4.93;;
6037;SDS011;3047;42.600;23.470;2022-08-19T05:11:18;9.02;;;5.63;;
6037;SDS011;3047;42.600;23.470;2022-08-19T05:13:48;9.43;;;5.55;;
6037;SDS011;3047;42.600;23.470;2022-08-19T05:16:16;6.45;;;5.80;;
6037;SDS011;3047;42.600;23.470;2022-08-19T05:18:46;8.90;;;5.95;;
6037;SDS011;3047;42.600;23.470;2022-08-19T05:21:31;14.73;;;5.95;;
6037;SDS011;3047;42.600;23.470;2022-08-19T05:24:15;7.43;;;5.45;;
6037;SDS011;3047;42.600;23.470;2022-08-19T05:26:44;10.43;;;5.45;;
6037;SDS011;3047;42.600;23.470;2022-08-19T05:29:13;6.25;;;5.32;;
6037;SDS011;3047;42.600;23.470;2022-08-19T05:31:41;12.25;;;7.53;;
6037;SDS011;3047;42.600;23.470;2022-08-19T05:34:10;13.20;;;7.72;;
6037;SDS011;3047;42.600;23.470;2022-08-19T05:36:42;12.20;;;8.45;;
6037;SDS011;3047;42.600;23.470;2022-08-19T05:39:10;18.27;;;7.68;;
6037;SDS011;3047;42.600;23.470;2022-08-19T05:41:40;8.73;;;5.80;;
6037;SDS011;3047;42.600;23.470;2022-08-19T05:44:07;8.82;;;5.85;;
6037;SDS011;3047;42.600;23.470;2022-08-19T05:46:34;10.68;;;5.78;;
6037;SDS011;3047;42.600;23.470;2022-08-19T05:49:02;6.30;;;5.40;;
6037;SDS011;3047;42.600;23.470;2022-08-19T05:51:31;7.90;;;5.32;;
6037;SDS011;3047;42.600;23.470;2022-08-19T05:53:59;7.82;;;5.65;;
6037;SDS011;3047;42.600;23.470;2022-08-19T05:56:25;12.18;;;6.07;;
6037;SDS011;3047;42.600;23.470;2022-08-19T05:58:52;10.80;;;5.90;;
6037;SDS011;3047;42.600;23.470;2022-08-19T06:01:20;10.82;;;5.18;;
6037;SDS011;3047;42.600;23.470;2022-08-19T06:03:47;8.23;;;5.32;;
6037;SDS011;3047;42.600;23.470;2022-08-19T06:06:15;11.93;;;6.20;;
6037;SDS011;3047;42.600;23.470;2022-08-19T06:08:43;6.35;;;5.70;;
6037;SDS011;3047;42.600;23.470;2022-08-19T06:11:17;8.32;;;5.95;;
6037;SDS011;3047;42.600;23.470;2022-08-19T06:13:46;9.55;;;5.82;;
6037;SDS011;3047;42.600;23.470;2022-08-19T06:16:16;7.97;;;5.47;;
6037;SDS011;3047;42.600;23.470;2022-08-19T06:18:45;9.38;;;5.50;;
6037;SDS011;3047;42.600;23.470;2022-08-19T06:21:13;12.98;;;5.97;;
6037;SDS011;3047;42.600;23.470;2022-08-19T06:23:40;6.20;;;5.65;;
6037;SDS011;3047;42.600;23.470;2022-08-19T06:26:08;12.52;;;5.72;;
6037;SDS011;3047;42.600;23.470;2022-08-19T06:28:37;6.07;;;5.47;;
6037;SDS011;3047;42.600;23.470;2022-08-19T06:31:12;9.35;;;5.70;;
6037;SDS011;3047;42.600;23.470;2022-08-19T06:33:41;8.52;;;5.47;;
6037;SDS011;3047;42.600;23.470;2022-08-19T06:36:08;6.32;;;5.78;;
6037;SDS011;3047;42.600;23.470;2022-08-19T06:38:43;6.85;;;6.18;;
6037;SDS011;3047;42.600;23.470;2022-08-19T06:41:11;8.55;;;6.03;;
6037;SDS011;3047;42.600;23.470;2022-08-19T06:43:38;5.93;;;5.43;;
6037;SDS011;3047;42.600;23.470;2022-08-19T06:46:09;7.63;;;6.15;;
6037;SDS011;3047;42.600;23.470;2022-08-19T06:48:37;8.55;;;6.07;;
6037;SDS011;3047;42.600;23.470;2022-08-19T06:51:04;6.57;;;6.05;;
6037;SDS011;3047;42.600;23.470;2022-08-19T06:53:31;8.95;;;6.38;;
6037;SDS011;3047;42.600;23.470;2022-08-19T06:55:58;6.22;;;5.63;;
6037;SDS011;3047;42.600;23.470;2022-08-19T06:58:29;11.40;;;6.18;;
6037;SDS011;3047;42.600;23.470;2022-08-19T07:00:58;6.35;;;5.75;;
6037;SDS011;3047;42.600;23.470;2022-08-19T07:03:28;7.00;;;5.57;;
6037;SDS011;3047;42.600;23.470;2022-08-19T07:05:56;7.72;;;6.00;;
6037;SDS011;3047;42.600;23.470;2022-08-19T07:08:24;5.97;;;5.43;;
6037;SDS011;3047;42.600;23.470;2022-08-19T07:10:52;6.25;;;5.70;;
6037;SDS011;3047;42.600;23.470;2022-08-19T07:13:19;6.20;;;5.57;;
6037;SDS011;3047;42.600;23.470;2022-08-19T07:15:48;6.18;;;5.50;;
6037;SDS011;3047;42.600;23.470;2022-08-19T07:18:16;8.68;;;5.22;;
6037;SDS011;3047;42.600;23.470;2022-08-19T07:20:44;6.38;;;5.78;;
6037;SDS011;3047;42.600;23.470;2022-08-19T07:23:10;5.60;;;5.10;;
6037;SDS011;3047;42.600;23.470;2022-08-19T07:25:38;5.68;;;4.97;;
6037;SDS011;3047;42.600;23.470;2022-08-19T07:28:05;6.50;;;5.47;;
6037;SDS011;3047;42.600;23.470;2022-08-19T07:30:35;5.57;;;5.05;;
6037;SDS011;3047;42.600;23.470;2022-08-19T07:33:04;6.35;;;4.97;;
6037;SDS011;3047;42.600;23.470;2022-08-19T07:35:31;7.45;;;5.63;;
6037;SDS011;3047;42.600;23.470;2022-08-19T07:40:27;7.95;;;5.82;;
6037;SDS011;3047;42.600;23.470;2022-08-19T07:42:54;6.57;;;4.85;;
6037;SDS011;3047;42.600;23.470;2022-08-19T07:45:21;10.98;;;5.60;;
6037;SDS011;3047;42.600;23.470;2022-08-19T07:47:48;7.20;;;5.30;;
6037;SDS011;3047;42.600;23.470;2022-08-19T07:50:16;7.78;;;4.80;;
6037;SDS011;3047;42.600;23.470;2022-08-19T07:52:45;5.68;;;5.15;;
6037;SDS011;3047;42.600;23.470;2022-08-19T07:55:11;8.25;;;5.03;;
6037;SDS011;3047;42.600;23.470;2022-08-19T07:57:39;6.40;;;5.13;;
6037;SDS011;3047;42.600;23.470;2022-08-19T08:00:06;6.13;;;5.40;;
6037;SDS011;3047;42.600;23.470;2022-08-19T08:02:33;7.57;;;4.85;;
6037;SDS011;3047;42.600;23.470;2022-08-19T08:05:00;6.40;;;4.80;;
6037;SDS011;3047;42.600;23.470;2022-08-19T08:07:45;6.47;;;4.97;;
6037;SDS011;3047;42.600;23.470;2022-08-19T08:10:29;6.25;;;5.15;;
6037;SDS011;3047;42.600;23.470;2022-08-19T08:12:57;5.35;;;4.90;;
6037;SDS011;3047;42.600;23.470;2022-08-19T08:15:24;5.47;;;5.03;;
6037;SDS011;3047;42.600;23.470;2022-08-19T08:17:51;6.50;;;4.75;;
6037;SDS011;3047;42.600;23.470;2022-08-19T08:20:18;6.72;;;5.15;;
6037;SDS011;3047;42.600;23.470;2022-08-19T08:22:47;10.45;;;4.38;;
6037;SDS011;3047;42.600;23.470;2022-08-19T08:25:31;4.63;;;4.20;;
6037;SDS011;3047;42.600;23.470;2022-08-19T08:28:00;5.35;;;4.57;;
6037;SDS011;3047;42.600;23.470;2022-08-19T08:30:28;6.13;;;4.32;;
6037;SDS011;3047;42.600;23.470;2022-08-19T08:32:57;4.68;;;4.28;;
6037;SDS011;3047;42.600;23.470;2022-08-19T08:35:24;4.32;;;4.00;;
6037;SDS011;3047;42.600;23.470;2022-08-19T08:37:53;4.63;;;4.20;;
6037;SDS011;3047;42.600;23.470;2022-08-19T08:40:22;4.85;;;4.43;;
6037;SDS011;3047;42.600;23.470;2022-08-19T08:42:57;7.20;;;4.18;;
6037;SDS011;3047;42.600;23.470;2022-08-19T08:45:30;4.90;;;3.80;;
6037;SDS011;3047;42.600;23.470;2022-08-19T08:48:00;5.30;;;4.80;;
6037;SDS011;3047;42.600;23.470;2022-08-19T08:50:31;6.43;;;4.00;;
6037;SDS011;3047;42.600;23.470;2022-08-19T08:53:04;7.60;;;4.30;;
6037;SDS011;3047;42.600;23.470;2022-08-19T08:55:33;6.40;;;3.80;;
6037;SDS011;3047;42.600;23.470;2022-08-19T08:58:01;4.85;;;4.55;;
6037;SDS011;3047;42.600;23.470;2022-08-19T09:00:31;4.40;;;4.05;;
6037;SDS011;3047;42.600;23.470;2022-08-19T09:03:00;5.63;;;3.92;;
6037;SDS011;3047;42.600;23.470;2022-08-19T09:05:30;3.67;;;3.38;;
6037;SDS011;3047;42.600;23.470;2022-08-19T09:08:07;4.40;;;4.00;;
6037;SDS011;3047;42.600;23.470;2022-08-19T09:10:40;6.60;;;4.30;;
6037;SDS011;3047;42.600;23.470;2022-08-19T09:13:13;6.07;;;4.07;;
6037;SDS011;3047;42.600;23.470;2022-08-19T09:15:50;6.20;;;3.70;;
6037;SDS011;3047;42.600;23.470;2022-08-19T09:18:21;4.10;;;3.80;;
6037;SDS011;3047;42.600;23.470;2022-08-19T09:20:47;6.35;;;4.20;;
6037;SDS011;3047;42.600;23.470;2022-08-19T09:23:16;6.50;;;3.53;;
6037;SDS011;3047;42.600;23.470;2022-08-19T09:25:42;3.95;;;3.63;;
6037;SDS011;3047;42.600;23.470;2022-08-19T09:28:09;3.45;;;3.13;;
6037;SDS011;3047;42.600;23.470;2022-08-19T09:30:38;4.35;;;3.47;;
6037;SDS011;3047;42.600;23.470;2022-08-19T09:33:06;5.65;;;3.33;;
6037;SDS011;3047;42.600;23.470;2022-08-19T09:35:33;3.67;;;3.47;;
6037;SDS011;3047;42.600;23.470;2022-08-19T09:38:01;4.07;;;3.38;;
6037;SDS011;3047;42.600;23.470;2022-08-19T09:40:29;3.80;;;3.45;;
6037;SDS011;3047;42.600;23.470;2022-08-19T09:42:56;5.10;;;3.35;;
6037;SDS011;3047;42.600;23.470;2022-08-19T09:45:27;4.72;;;3.63;;
6037;SDS011;3047;42.600;23.470;2022-08-19T09:47:54;3.20;;;3.00;;
6037;SDS011;3047;42.600;23.470;2022-08-19T09:50:22;3.97;;;3.50;;
6037;SDS011;3047;42.600;23.470;2022-08-19T09:52:49;5.57;;;3.47;;
6037;SDS011;3047;42.600;23.470;2022-08-19T09:55:18;4.10;;;3.65;;
6037;SDS011;3047;42.600;23.470;2022-08-19T09:57:46;4.55;;;3.10;;
6037;SDS011;3047;42.600;23.470;2022-08-19T10:00:13;4.03;;;3.63;;
6037;SDS011;3047;42.600;23.470;2022-08-19T10:02:40;5.95;;;3.45;;
6037;SDS011;3047;42.600;23.470;2022-08-19T10:05:07;5.60;;;3.80;;
6037;SDS011;3047;42.600;23.470;2022-08-19T10:07:51;6.10;;;3.83;;
6037;SDS011;3047;42.600;23.470;2022-08-19T10:10:19;4.93;;;3.33;;
6037;SDS011;3047;42.600;23.470;2022-08-19T10:12:47;4.15;;;3.85;;
6037;SDS011;3047;42.600;23.470;2022-08-19T10:15:13;7.85;;;3.70;;
6037;SDS011;3047;42.600;23.470;2022-08-19T10:17:41;4.93;;;4.15;;
6037;SDS011;3047;42.600;23.470;2022-08-19T10:20:08;3.80;;;3.15;;
6037;SDS011;3047;42.600;23.470;2022-08-19T10:22:35;6.40;;;3.80;;
6037;SDS011;3047;42.600;23.470;2022-08-19T10:25:03;5.78;;;3.88;;
6037;SDS011;3047;42.600;23.470;2022-08-19T10:27:31;4.68;;;3.65;;
6037;SDS011;3047;42.600;23.470;2022-08-19T10:29:59;5.70;;;4.05;;
6037;SDS011;3047;42.600;23.470;2022-08-19T10:32:26;5.43;;;3.83;;
6037;SDS011;3047;42.600;23.470;2022-08-19T10:34:54;4.13;;;3.65;;
6037;SDS011;3047;42.600;23.470;2022-08-19T10:37:22;4.07;;;3.67;;
6037;SDS011;3047;42.600;23.470;2022-08-19T10:39:49;4.03;;;3.67;;
6037;SDS011;3047;42.600;23.470;2022-08-19T10:42:16;4.25;;;3.80;;
6037;SDS011;3047;42.600;23.470;2022-08-19T10:44:43;4.00;;;3.70;;
6037;SDS011;3047;42.600;23.470;2022-08-19T10:47:13;5.53;;;4.00;;
6037;SDS011;3047;42.600;23.470;2022-08-19T10:49:39;4.30;;;4.00;;
6037;SDS011;3047;42.600;23.470;2022-08-19T10:52:20;9.20;;;4.10;;
6037;SDS011;3047;42.600;23.470;2022-08-19T10:55:02;4.40;;;4.00;;
6037;SDS011;3047;42.600;23.470;2022-08-19T10:57:48;4.22;;;3.85;;
6037;SDS011;3047;42.600;23.470;2022-08-19T11:00:15;4.32;;;3.92;;
6037;SDS011;3047;42.600;23.470;2022-08-19T11:02:43;7.47;;;4.22;;
6037;SDS011;3047;42.600;23.470;2022-08-19T11:05:11;4.65;;;3.45;;
6037;SDS011;3047;42.600;23.470;2022-08-19T11:07:38;4.03;;;3.72;;
6037;SDS011;3047;42.600;23.470;2022-08-19T11:10:06;4.68;;;3.95;;
6037;SDS011;3047;42.600;23.470;2022-08-19T11:12:36;4.15;;;3.80;;
6037;SDS011;3047;42.600;23.470;2022-08-19T11:15:04;6.18;;;3.75;;
6037;SDS011;3047;42.600;23.470;2022-08-19T11:17:32;3.95;;;3.63;;
6037;SDS011;3047;42.600;23.470;2022-08-19T11:20:01;4.97;;;3.67;;
6037;SDS011;3047;42.600;23.470;2022-08-19T11:22:30;4.68;;;3.92;;
6037;SDS011;3047;42.600;23.470;2022-08-19T11:24:56;4.50;;;4.20;;
6037;SDS011;3047;42.600;23.470;2022-08-19T11:27:23;3.88;;;3.55;;
6037;SDS011;3047;42.600;23.470;2022-08-19T11:29:50;4.40;;;3.83;;
6037;SDS011;3047;42.600;23.470;2022-08-19T11:32:17;4.65;;;4.30;;
6037;SDS011;3047;42.600;23.470;2022-08-19T11:34:44;4.90;;;4.10;;
6037;SDS011;3047;42.600;23.470;2022-08-19T11:37:12;7.75;;;3.97;;
6037;SDS011;3047;42.600;23.470;2022-08-19T11:39:41;5.75;;;4.35;;
6037;SDS011;3047;42.600;23.470;2022-08-19T11:42:07;4.78;;;4.28;;
6037;SDS011;3047;42.600;23.470;2022-08-19T11:44:48;4.80;;;4.40;;
6037;SDS011;3047;42.600;23.470;2022-08-19T11:47:15;4.82;;;4.38;;
6037;SDS011;3047;42.600;23.470;2022-08-19T11:49:42;6.78;;;4.32;;
6037;SDS011;3047;42.600;23.470;2022-08-19T11:52:08;4.53;;;4.13;;
6037;SDS011;3047;42.600;23.470;2022-08-19T11:54:37;9.73;;;4.78;;
6037;SDS011;3047;42.600;23.470;2022-08-19T11:57:04;8.43;;;4.30;;
6037;SDS011;3047;42.600;23.470;2022-08-19T11:59:31;5.05;;;4.07;;
6037;SDS011;3047;42.600;23.470;2022-08-19T12:01:58;4.60;;;4.03;;
6037;SDS011;3047;42.600;23.470;2022-08-19T12:04:24;4.10;;;3.63;;
6037;SDS011;3047;42.600;23.470;2022-08-19T12:06:51;4.68;;;4.25;;
6037;SDS011;3047;42.600;23.470;2022-08-19T12:09:18;5.10;;;3.95;;
6037;SDS011;3047;42.600;23.470;2022-08-19T12:11:46;4.45;;;4.05;;
6037;SDS011;3047;42.600;23.470;2022-08-19T12:14:12;5.15;;;4.05;;
6037;SDS011;3047;42.600;23.470;2022-08-19T12:16:39;4.00;;;3.70;;
6037;SDS011;3047;42.600;23.470;2022-08-19T12:19:07;4.43;;;3.97;;
6037;SDS011;3047;42.600;23.470;2022-08-19T12:21:34;6.70;;;4.03;;
6037;SDS011;3047;42.600;23.470;2022-08-19T12:24:02;5.13;;;4.00;;
6037;SDS011;3047;42.600;23.470;2022-08-19T12:26:30;6.22;;;4.32;;
6037;SDS011;3047;42.600;23.470;2022-08-19T12:28:58;6.20;;;4.57;;
6037;SDS011;3047;42.600;23.470;2022-08-19T12:31:26;4.40;;;4.00;;
6037;SDS011;3047;42.600;23.470;2022-08-19T12:33:53;4.88;;;4.28;;
6037;SDS011;3047;42.600;23.470;2022-08-19T12:36:20;5.43;;;3.90;;
6037;SDS011;3047;42.600;23.470;2022-08-19T12:38:48;5.85;;;4.85;;
6037;SDS011;3047;42.600;23.470;2022-08-19T12:41:15;5.45;;;4.47;;
6037;SDS011;3047;42.600;23.470;2022-08-19T12:43:43;5.38;;;4.53;;
6037;SDS011;3047;42.600;23.470;2022-08-19T12:46:12;4.78;;;4.38;;
6037;SDS011;3047;42.600;23.470;2022-08-19T12:48:39;4.70;;;4.40;;
6037;SDS011;3047;42.600;23.470;2022-08-19T12:51:08;5.22;;;4.38;;
6037;SDS011;3047;42.600;23.470;2022-08-19T12:53:36;5.35;;;3.60;;
6037;SDS011;3047;42.600;23.470;2022-08-19T12:56:03;5.80;;;4.20;;
6037;SDS011;3047;42.600;23.470;2022-08-19T12:58:30;4.65;;;4.07;;
6037;SDS011;3047;42.600;23.470;2022-08-19T13:00:59;4.05;;;3.60;;
6037;SDS011;3047;42.600;23.470;2022-08-19T13:03:33;4.50;;;4.10;;
6037;SDS011;3047;42.600;23.470;2022-08-19T13:06:00;8.27;;;4.40;;
6037;SDS011;3047;42.600;23.470;2022-08-19T13:08:26;4.50;;;3.83;;
6037;SDS011;3047;42.600;23.470;2022-08-19T13:10:53;4.78;;;4.18;;
6037;SDS011;3047;42.600;23.470;2022-08-19T13:13:20;8.13;;;4.63;;
6037;SDS011;3047;42.600;23.470;2022-08-19T13:15:47;5.13;;;4.43;;
6037;SDS011;3047;42.600;23.470;2022-08-19T13:18:14;5.15;;;4.18;;
6037;SDS011;3047;42.600;23.470;2022-08-19T13:20:42;4.65;;;4.32;;
6037;SDS011;3047;42.600;23.470;2022-08-19T13:23:09;4.63;;;4.32;;
6037;SDS011;3047;42.600;23.470;2022-08-19T13:25:35;6.43;;;3.95;;
6037;SDS011;3047;42.600;23.470;2022-08-19T13:28:03;5.93;;;4.18;;
6037;SDS011;3047;42.600;23.470;2022-08-19T13:30:31;5.78;;;5.20;;
6037;SDS011;3047;42.600;23.470;2022-08-19T13:33:16;4.60;;;4.30;;
6037;SDS011;3047;42.600;23.470;2022-08-19T13:35:46;9.13;;;4.45;;
6037;SDS011;3047;42.600;23.470;2022-08-19T13:38:14;6.38;;;4.15;;
6037;SDS011;3047;42.600;23.470;2022-08-19T13:40:43;5.20;;;4.28;;
6037;SDS011;3047;42.600;23.470;2022-08-19T13:43:11;5.65;;;4.47;;
6037;SDS011;3047;42.600;23.470;2022-08-19T13:45:39;5.05;;;4.55;;
6037;SDS011;3047;42.600;23.470;2022-08-19T13:48:06;5.03;;;4.53;;
6037;SDS011;3047;42.600;23.470;2022-08-19T13:50:34;4.65;;;4.10;;
6037;SDS011;3047;42.600;23.470;2022-08-19T13:53:06;4.85;;;4.40;;
6037;SDS011;3047;42.600;23.470;2022-08-19T13:55:34;5.78;;;4.32;;
6037;SDS011;3047;42.600;23.470;2022-08-19T13:58:01;7.47;;;4.47;;
6037;SDS011;3047;42.600;23.470;2022-08-19T14:00:29;6.07;;;4.50;;
6037;SDS011;3047;42.600;23.470;2022-08-19T14:03:00;5.10;;;4.50;;
6037;SDS011;3047;42.600;23.470;2022-08-19T14:05:27;5.78;;;4.88;;
6037;SDS011;3047;42.600;23.470;2022-08-19T14:07:55;5.28;;;4.35;;
6037;SDS011;3047;42.600;23.470;2022-08-19T14:10:23;9.23;;;4.55;;
6037;SDS011;3047;42.600;23.470;2022-08-19T14:12:52;7.78;;;4.57;;
6037;SDS011;3047;42.600;23.470;2022-08-19T14:15:21;4.82;;;4.30;;
6037;SDS011;3047;42.600;23.470;2022-08-19T14:17:48;6.20;;;4.40;;
6037;SDS011;3047;42.600;23.470;2022-08-19T14:20:15;5.78;;;4.30;;
6037;SDS011;3047;42.600;23.470;2022-08-19T14:22:42;4.68;;;4.38;;
6037;SDS011;3047;42.600;23.470;2022-08-19T14:25:11;6.10;;;4.75;;
6037;SDS011;3047;42.600;23.470;2022-08-19T14:27:42;5.70;;;4.18;;
6037;SDS011;3047;42.600;23.470;2022-08-19T14:30:10;6.25;;;4.82;;
6037;SDS011;3047;42.600;23.470;2022-08-19T14:32:39;10.57;;;4.88;;
6037;SDS011;3047;42.600;23.470;2022-08-19T14:35:08;5.55;;;4.63;;
6037;SDS011;3047;42.600;23.470;2022-08-19T14:37:37;6.40;;;5.00;;
6037;SDS011;3047;42.600;23.470;2022-08-19T14:40:05;5.55;;;4.38;;
6037;SDS011;3047;42.600;23.470;2022-08-19T14:42:33;10.48;;;4.85;;
6037;SDS011;3047;42.600;23.470;2022-08-19T14:45:02;6.00;;;4.90;;
6037;SDS011;3047;42.600;23.470;2022-08-19T14:47:31;5.60;;;4.15;;
6037;SDS011;3047;42.600;23.470;2022-08-19T14:49:57;7.78;;;4.18;;
6037;SDS011;3047;42.600;23.470;2022-08-19T14:52:24;5.53;;;4.68;;
6037;SDS011;3047;42.600;23.470;2022-08-19T14:54:51;8.18;;;4.03;;
6037;SDS011;3047;42.600;23.470;2022-08-19T14:57:18;6.38;;;4.75;;
6037;SDS011;3047;42.600;23.470;2022-08-19T14:59:45;5.07;;;4.60;;
6037;SDS011;3047;42.600;23.470;2022-08-19T15:02:13;4.82;;;4.20;;
6037;SDS011;3047;42.600;23.470;2022-08-19T15:04:39;6.10;;;4.68;;
6037;SDS011;3047;42.600;23.470;2022-08-19T15:07:06;5.10;;;4.15;;
6037;SDS011;3047;42.600;23.470;2022-08-19T15:09:33;5.47;;;4.43;;
6037;SDS011;3047;42.600;23.470;2022-08-19T15:12:01;6.32;;;4.47;;